createdAt,value
2022-12-31T00:00:39.103Z,3.60
2022-12-31T00:03:41.649Z,3.50
2022-12-31T00:06:43.221Z,3.63
2022-12-31T00:09:44.779Z,3.90
2022-12-31T00:12:46.295Z,3.22
2022-12-31T00:15:47.806Z,2.58
2022-12-31T00:18:53.215Z,3.90
2022-12-31T00:21:54.881Z,3.38
2022-12-31T00:24:56.403Z,3.08
2022-12-31T00:27:57.892Z,4.45
2022-12-31T00:31:08.725Z,3.05
2022-12-31T00:34:10.313Z,4.38
2022-12-31T00:37:11.928Z,2.95
2022-12-31T00:40:14.238Z,2.97
2022-12-31T00:43:15.761Z,3.50
2022-12-31T00:46:17.752Z,3.40
2022-12-31T00:49:19.507Z,3.22
2022-12-31T00:52:21.089Z,3.85
2022-12-31T00:55:22.614Z,2.53
2022-12-31T00:58:24.787Z,3.50
2022-12-31T01:01:35.989Z,2.15
2022-12-31T01:04:37.742Z,3.20
2022-12-31T01:07:39.305Z,2.67
2022-12-31T01:10:59.553Z,2.95
2022-12-31T01:14:17.457Z,4.03
2022-12-31T01:17:19.113Z,3.28
2022-12-31T01:20:20.608Z,3.45
2022-12-31T01:23:22.148Z,3.05
2022-12-31T01:26:23.719Z,3.05
2022-12-31T01:29:25.276Z,3.00
2022-12-31T01:32:26.866Z,2.90
2022-12-31T01:35:28.383Z,3.30
2022-12-31T01:38:29.959Z,4.30
2022-12-31T01:41:44.761Z,2.80
2022-12-31T01:44:50.907Z,2.58
2022-12-31T01:47:57.207Z,2.85
2022-12-31T01:54:04.250Z,2.88
2022-12-31T01:57:08.088Z,2.85
2022-12-31T02:00:10.347Z,2.97
2022-12-31T02:03:13.296Z,3.20
2022-12-31T02:06:21.893Z,3.13
2022-12-31T02:09:23.815Z,2.95
2022-12-31T02:12:25.528Z,3.58
2022-12-31T02:15:58.484Z,2.90
2022-12-31T02:19:21.518Z,3.47
2022-12-31T02:22:47.956Z,2.95
2022-12-31T02:26:00.058Z,3.80
2022-12-31T02:29:33.132Z,3.05
2022-12-31T02:33:00.775Z,2.92
2022-12-31T02:36:15.912Z,2.55
2022-12-31T02:39:17.497Z,2.55
2022-12-31T02:42:18.998Z,4.03
2022-12-31T02:45:31.239Z,2.17
2022-12-31T02:48:37.867Z,2.55
2022-12-31T02:51:47.546Z,2.47
2022-12-31T02:54:55.968Z,3.35
2022-12-31T02:58:13.178Z,1.48
2022-12-31T03:01:39.012Z,3.30
2022-12-31T03:04:44.129Z,2.65
2022-12-31T03:07:46.309Z,3.50
2022-12-31T03:10:47.880Z,4.85
2022-12-31T03:13:49.441Z,4.13
2022-12-31T03:16:51.257Z,7.00
2022-12-31T03:20:11.587Z,3.90
2022-12-31T03:23:15.350Z,4.25
2022-12-31T03:26:16.946Z,4.20
2022-12-31T03:29:18.481Z,3.85
2022-12-31T03:32:20.104Z,4.88
2022-12-31T03:35:23.548Z,4.13
2022-12-31T03:38:25.211Z,4.90
2022-12-31T03:41:26.781Z,4.32
2022-12-31T03:44:28.353Z,3.53
2022-12-31T03:47:30.111Z,4.32
2022-12-31T03:50:31.677Z,3.58
2022-12-31T03:53:34.804Z,3.70
2022-12-31T03:56:36.392Z,2.85
2022-12-31T03:59:38.156Z,3.40
2022-12-31T04:02:40.139Z,3.00
2022-12-31T04:05:41.763Z,3.88
2022-12-31T04:08:43.334Z,3.88
2022-12-31T04:11:44.849Z,2.90
2022-12-31T04:14:46.348Z,4.20
2022-12-31T04:17:48.349Z,3.95
2022-12-31T04:20:49.891Z,3.90
2022-12-31T04:23:51.451Z,4.15
2022-12-31T04:26:52.996Z,3.55
2022-12-31T04:29:54.479Z,3.53
2022-12-31T04:32:56.105Z,4.85
2022-12-31T04:36:05.405Z,4.03
2022-12-31T04:39:06.969Z,3.85
2022-12-31T04:42:08.512Z,3.65
2022-12-31T04:45:10.346Z,3.75
2022-12-31T04:48:11.879Z,2.63
2022-12-31T04:51:14.171Z,2.78
2022-12-31T04:54:15.678Z,2.80
2022-12-31T04:57:17.213Z,3.47
2022-12-31T05:00:18.803Z,2.72
2022-12-31T05:03:21.806Z,2.55
2022-12-31T05:06:23.774Z,2.72
2022-12-31T05:09:27.469Z,3.78
2022-12-31T05:12:29.000Z,3.33
2022-12-31T05:15:30.516Z,3.33
2022-12-31T05:18:33.698Z,3.25
2022-12-31T05:21:36.046Z,3.72
2022-12-31T05:24:37.603Z,3.15
2022-12-31T05:27:39.116Z,3.08
2022-12-31T05:30:41.485Z,4.00
2022-12-31T05:33:43.066Z,2.95
2022-12-31T05:36:44.625Z,3.42
2022-12-31T05:39:46.148Z,3.17
2022-12-31T05:42:47.732Z,2.97
2022-12-31T05:45:50.392Z,3.22
2022-12-31T05:48:51.957Z,2.55
2022-12-31T05:51:53.539Z,2.95
2022-12-31T05:54:55.113Z,2.60
2022-12-31T05:57:56.652Z,2.70
2022-12-31T06:00:58.247Z,3.55
2022-12-31T06:04:00.505Z,3.70
2022-12-31T06:07:02.094Z,2.90
2022-12-31T06:10:04.446Z,3.42
2022-12-31T06:13:06.155Z,3.65
2022-12-31T06:16:10.812Z,3.13
2022-12-31T06:19:12.340Z,3.33
2022-12-31T06:22:14.099Z,3.17
2022-12-31T06:25:15.721Z,3.17
2022-12-31T06:28:20.434Z,3.03
2022-12-31T06:31:22.651Z,3.33
2022-12-31T06:34:24.278Z,4.60
2022-12-31T06:37:25.802Z,3.42
2022-12-31T06:40:27.331Z,3.63
2022-12-31T06:43:28.852Z,2.85
2022-12-31T06:46:30.427Z,3.92
2022-12-31T06:49:32.789Z,3.67
2022-12-31T06:52:34.286Z,3.92
2022-12-31T06:55:36.184Z,3.33
2022-12-31T06:58:38.097Z,3.53
2022-12-31T07:01:59.525Z,3.58
2022-12-31T07:05:28.492Z,3.40
2022-12-31T07:08:37.827Z,3.50
2022-12-31T07:11:51.972Z,3.90
2022-12-31T07:14:59.228Z,3.22
2022-12-31T07:18:10.340Z,2.83
2022-12-31T07:21:15.593Z,3.10
2022-12-31T07:24:17.508Z,3.65
2022-12-31T07:27:38.635Z,3.15
2022-12-31T07:30:52.230Z,3.45
2022-12-31T07:33:58.904Z,3.17
2022-12-31T07:37:10.068Z,3.53
2022-12-31T07:40:29.682Z,3.63
2022-12-31T07:43:37.182Z,2.90
2022-12-31T07:46:56.726Z,2.85
2022-12-31T07:49:58.728Z,2.58
2022-12-31T07:53:00.580Z,3.30
2022-12-31T07:56:04.312Z,3.63
2022-12-31T07:59:43.538Z,3.08
2022-12-31T08:03:15.044Z,3.38
2022-12-31T08:06:27.971Z,4.25
2022-12-31T08:09:49.646Z,3.22
2022-12-31T08:13:02.286Z,3.17
2022-12-31T08:16:04.112Z,3.22
2022-12-31T08:19:06.059Z,3.00
2022-12-31T08:22:26.334Z,3.55
2022-12-31T08:25:33.395Z,3.85
2022-12-31T08:28:47.072Z,3.38
2022-12-31T08:32:03.294Z,4.07
2022-12-31T08:35:27.968Z,4.15
2022-12-31T08:38:44.044Z,4.00
2022-12-31T08:41:49.407Z,3.17
2022-12-31T08:45:05.448Z,3.07
2022-12-31T08:48:20.002Z,2.47
2022-12-31T08:51:24.125Z,2.40
2022-12-31T08:54:26.232Z,3.25
2022-12-31T08:57:39.537Z,3.13
2022-12-31T09:00:41.968Z,2.97
2022-12-31T09:04:10.393Z,4.13
2022-12-31T09:07:13.991Z,3.20
2022-12-31T09:10:27.419Z,2.55
2022-12-31T09:13:59.405Z,2.95
2022-12-31T09:17:38.506Z,2.47
2022-12-31T09:20:43.262Z,2.28
2022-12-31T09:23:45.989Z,2.58
2022-12-31T09:27:04.705Z,3.17
2022-12-31T09:30:12.908Z,3.10
2022-12-31T09:33:42.518Z,2.42
2022-12-31T09:36:51.468Z,2.65
2022-12-31T09:39:57.172Z,3.63
2022-12-31T09:43:20.548Z,2.97
2022-12-31T09:47:01.168Z,3.10
2022-12-31T09:50:37.651Z,2.50
2022-12-31T09:53:48.301Z,3.03
2022-12-31T09:57:11.677Z,2.92
2022-12-31T10:00:22.503Z,2.10
2022-12-31T10:03:43.276Z,2.53
2022-12-31T10:07:00.010Z,3.22
2022-12-31T10:10:10.793Z,2.85
2022-12-31T10:13:33.019Z,2.53
2022-12-31T10:17:01.733Z,2.35
2022-12-31T10:20:21.559Z,3.72
2022-12-31T10:23:48.047Z,3.08
2022-12-31T10:27:01.612Z,2.00
2022-12-31T10:30:17.334Z,2.28
2022-12-31T10:33:33.699Z,2.92
2022-12-31T10:36:52.913Z,2.35
2022-12-31T10:40:15.845Z,2.10
2022-12-31T10:43:38.537Z,2.00
2022-12-31T10:50:48.667Z,2.08
2022-12-31T10:54:12.776Z,2.28
2022-12-31T10:57:43.023Z,3.50
2022-12-31T11:00:56.875Z,3.30
2022-12-31T11:04:32.474Z,2.90
2022-12-31T11:08:11.180Z,2.55
2022-12-31T11:11:45.471Z,3.05
2022-12-31T11:15:05.312Z,2.97
2022-12-31T11:18:31.194Z,2.33
2022-12-31T11:21:59.772Z,2.67
2022-12-31T11:25:35.768Z,3.08
2022-12-31T11:29:14.119Z,2.75
2022-12-31T11:32:24.024Z,2.58
2022-12-31T11:36:04.115Z,3.22
2022-12-31T11:39:27.316Z,2.60
2022-12-31T11:43:21.039Z,3.15
2022-12-31T11:46:48.856Z,2.40
2022-12-31T11:50:09.156Z,3.50
2022-12-31T11:53:47.983Z,3.05
2022-12-31T11:57:23.546Z,2.63
2022-12-31T12:00:26.748Z,2.20
2022-12-31T12:03:28.453Z,2.03
2022-12-31T12:06:33.133Z,1.95
2022-12-31T12:09:35.303Z,2.05
2022-12-31T12:12:41.326Z,1.73
2022-12-31T12:18:51.536Z,2.90
2022-12-31T12:21:54.004Z,2.95
2022-12-31T12:25:04.771Z,3.97
2022-12-31T12:28:19.773Z,3.55
2022-12-31T12:31:23.984Z,2.47
2022-12-31T12:34:29.701Z,2.10
2022-12-31T12:37:34.393Z,1.35
2022-12-31T12:40:35.992Z,1.77
2022-12-31T12:43:38.560Z,1.52
2022-12-31T12:46:52.796Z,2.58
2022-12-31T12:49:55.047Z,1.88
2022-12-31T12:53:18.459Z,3.20
2022-12-31T12:56:35.363Z,4.53
2022-12-31T12:59:55.637Z,1.80
2022-12-31T13:03:27.533Z,2.10
2022-12-31T13:06:46.443Z,1.65
2022-12-31T13:10:16.483Z,1.80
2022-12-31T13:13:25.263Z,2.80
2022-12-31T13:16:33.302Z,2.42
2022-12-31T13:19:50.668Z,2.28
2022-12-31T13:23:20.044Z,2.97
2022-12-31T13:26:29.427Z,2.28
2022-12-31T13:29:35.014Z,2.58
2022-12-31T13:32:40.694Z,4.32
2022-12-31T13:35:51.277Z,5.35
2022-12-31T13:38:56.816Z,3.92
2022-12-31T13:42:21.679Z,3.20
2022-12-31T13:45:31.955Z,2.92
2022-12-31T13:48:47.711Z,2.28
2022-12-31T13:52:03.754Z,2.92
2022-12-31T13:55:27.595Z,1.92
2022-12-31T13:58:50.221Z,2.90
2022-12-31T14:02:01.312Z,2.17
2022-12-31T14:05:16.470Z,1.98
2022-12-31T14:08:18.085Z,4.40
2022-12-31T14:11:47.988Z,2.75
2022-12-31T14:15:21.784Z,3.33
2022-12-31T14:18:35.897Z,3.05
2022-12-31T14:21:50.278Z,3.92
2022-12-31T14:24:52.480Z,2.22
2022-12-31T14:27:56.514Z,2.17
2022-12-31T14:31:13.709Z,2.13
2022-12-31T14:34:40.967Z,2.53
2022-12-31T14:37:56.819Z,2.35
2022-12-31T14:41:17.208Z,2.93
2022-12-31T14:44:37.626Z,2.67
2022-12-31T14:47:57.907Z,3.05
2022-12-31T14:51:02.567Z,3.00
2022-12-31T14:54:05.026Z,3.30
2022-12-31T14:57:24.541Z,3.55
2022-12-31T15:00:26.697Z,4.10
2022-12-31T15:03:30.990Z,3.25
2022-12-31T15:06:47.382Z,3.33
2022-12-31T15:09:48.907Z,5.80
2022-12-31T15:13:06.404Z,4.60
2022-12-31T15:16:19.957Z,2.88
2022-12-31T15:19:58.580Z,3.40
2022-12-31T15:23:01.320Z,4.05
2022-12-31T15:26:04.162Z,4.82
2022-12-31T15:29:19.383Z,3.05
2022-12-31T15:32:30.105Z,4.32
2022-12-31T15:35:48.502Z,4.35
2022-12-31T15:39:03.068Z,2.35
2022-12-31T15:42:37.968Z,4.70
2022-12-31T15:45:42.879Z,3.40
2022-12-31T15:49:01.973Z,4.20
2022-12-31T15:52:30.342Z,3.60
2022-12-31T15:55:49.414Z,3.13
2022-12-31T15:58:56.748Z,3.92
2022-12-31T16:01:58.951Z,3.45
2022-12-31T16:05:00.965Z,3.70
2022-12-31T16:08:02.759Z,2.50
2022-12-31T16:11:07.155Z,4.10
2022-12-31T16:14:19.788Z,3.55
2022-12-31T16:17:33.503Z,6.28
2022-12-31T16:20:41.901Z,7.82
2022-12-31T16:23:53.143Z,4.60
2022-12-31T16:26:58.708Z,3.63
2022-12-31T16:30:07.167Z,3.33
2022-12-31T16:33:14.735Z,3.22
2022-12-31T16:36:25.106Z,2.70
2022-12-31T16:39:28.726Z,2.90
2022-12-31T16:42:30.713Z,2.65
2022-12-31T16:45:36.950Z,4.95
2022-12-31T16:48:39.070Z,4.45
2022-12-31T16:51:41.357Z,5.25
2022-12-31T16:54:47.835Z,5.10
2022-12-31T16:57:58.223Z,4.90
2022-12-31T17:01:18.099Z,5.45
2022-12-31T17:04:21.733Z,4.85
2022-12-31T17:07:32.533Z,4.65
2022-12-31T17:10:36.438Z,4.20
2022-12-31T17:13:38.175Z,5.55
2022-12-31T17:17:08.785Z,5.43
2022-12-31T17:20:21.841Z,4.25
2022-12-31T17:23:33.718Z,4.90
2022-12-31T17:26:37.944Z,4.32
2022-12-31T17:29:39.476Z,4.78
2022-12-31T17:32:42.737Z,5.22
2022-12-31T17:35:45.299Z,4.07
2022-12-31T17:38:46.834Z,3.72
2022-12-31T17:41:52.743Z,4.22
2022-12-31T17:44:58.739Z,4.13
2022-12-31T17:48:03.028Z,4.10
2022-12-31T17:51:04.919Z,4.30
2022-12-31T17:54:17.916Z,3.83
2022-12-31T17:57:28.639Z,4.47
2022-12-31T18:00:33.266Z,4.82
2022-12-31T18:03:35.352Z,3.83
2022-12-31T18:06:47.751Z,4.45
2022-12-31T18:09:49.443Z,3.70
2022-12-31T18:12:51.750Z,4.93
2022-12-31T18:15:54.375Z,6.20
2022-12-31T18:18:58.820Z,3.78
2022-12-31T18:22:00.797Z,3.78
2022-12-31T18:25:02.825Z,3.67
2022-12-31T18:28:08.852Z,4.38
2022-12-31T18:31:14.845Z,4.07
2022-12-31T18:34:17.935Z,3.35
2022-12-31T18:37:22.280Z,3.42
2022-12-31T18:40:24.366Z,3.22
2022-12-31T18:43:25.937Z,3.55
2022-12-31T18:46:28.161Z,3.85
2022-12-31T18:49:30.275Z,4.20
2022-12-31T18:52:32.030Z,4.25
2022-12-31T18:55:40.430Z,3.85
2022-12-31T18:58:42.571Z,3.70
2022-12-31T19:01:44.412Z,5.05
2022-12-31T19:04:46.911Z,4.95
2022-12-31T19:07:48.511Z,4.20
2022-12-31T19:10:55.647Z,4.00
2022-12-31T19:13:57.324Z,3.80
2022-12-31T19:20:04.313Z,4.35
2022-12-31T19:23:06.446Z,4.57
2022-12-31T19:26:14.043Z,5.20
2022-12-31T19:29:26.843Z,4.55
2022-12-31T19:32:28.750Z,5.65
2022-12-31T19:35:30.518Z,4.72
2022-12-31T19:38:32.609Z,3.90
2022-12-31T19:41:34.497Z,3.95
2022-12-31T19:44:36.244Z,5.78
2022-12-31T19:47:37.889Z,4.70
2022-12-31T19:50:45.846Z,4.55
2022-12-31T19:53:53.546Z,3.88
2022-12-31T19:56:56.355Z,4.65
2022-12-31T19:59:58.017Z,4.63
2022-12-31T20:03:00.040Z,4.50
2022-12-31T20:06:07.586Z,3.88
2022-12-31T20:09:10.807Z,4.22
2022-12-31T20:12:12.440Z,4.38
2022-12-31T20:15:14.123Z,4.03
2022-12-31T20:18:21.004Z,6.88
2022-12-31T20:21:26.152Z,5.15
2022-12-31T20:24:27.916Z,17.23
2022-12-31T20:27:29.789Z,6.88
2022-12-31T20:30:31.510Z,6.00
2022-12-31T20:33:33.807Z,5.10
2022-12-31T20:36:36.656Z,4.13
2022-12-31T20:39:38.319Z,4.72
2022-12-31T20:42:40.940Z,3.95
2022-12-31T20:45:44.138Z,6.03
2022-12-31T20:48:47.692Z,5.05
2022-12-31T20:51:52.183Z,4.18
2022-12-31T20:54:56.744Z,5.75
2022-12-31T20:57:58.619Z,5.25
2022-12-31T21:01:00.583Z,5.07
2022-12-31T21:04:05.480Z,5.22
2022-12-31T21:07:08.012Z,4.90
2022-12-31T21:10:09.722Z,4.65
2022-12-31T21:13:11.574Z,6.40
2022-12-31T21:16:13.287Z,4.80
2022-12-31T21:19:14.891Z,5.03
2022-12-31T21:22:16.784Z,7.80
2022-12-31T21:25:18.592Z,6.68
2022-12-31T21:28:20.371Z,5.22
2022-12-31T21:31:22.061Z,6.22
2022-12-31T21:34:23.723Z,5.30
2022-12-31T21:37:26.582Z,5.53
2022-12-31T21:40:49.014Z,5.38
2022-12-31T21:43:53.787Z,4.90
2022-12-31T21:47:45.673Z,4.68
2022-12-31T21:50:46.264Z,6.10
2022-12-31T21:53:47.961Z,4.82
2022-12-31T21:56:49.748Z,6.28
2022-12-31T22:00:41.931Z,4.55
2022-12-31T22:03:45.327Z,5.50
2022-12-31T22:06:47.412Z,4.80
2022-12-31T22:09:50.195Z,4.38
2022-12-31T22:12:52.120Z,5.13
2022-12-31T22:16:05.342Z,4.95
2022-12-31T22:19:08.143Z,4.82
2022-12-31T22:22:10.749Z,4.80
2022-12-31T22:25:12.393Z,5.50
2022-12-31T22:28:41.232Z,5.20
2022-12-31T22:31:35.614Z,4.50
2022-12-31T22:34:37.402Z,5.68
2022-12-31T22:41:11.920Z,6.15
2022-12-31T22:44:18.559Z,4.97
2022-12-31T22:47:20.272Z,5.25
2022-12-31T22:50:28.819Z,4.95
2022-12-31T22:53:30.549Z,5.90
2022-12-31T22:56:34.721Z,5.90
2022-12-31T22:59:36.512Z,7.50
2022-12-31T23:02:41.765Z,18.02
2022-12-31T23:05:44.888Z,17.30
2022-12-31T23:09:09.965Z,13.45
2022-12-31T23:12:12.045Z,9.98
2022-12-31T23:15:32.435Z,7.20
2022-12-31T23:18:52.934Z,8.70
2022-12-31T23:22:13.491Z,11.98
2022-12-31T23:25:15.233Z,10.27
2022-12-31T23:28:22.856Z,12.20
2022-12-31T23:31:28.827Z,8.43
2022-12-31T23:34:30.856Z,9.75
2022-12-31T23:37:33.307Z,8.50
2022-12-31T23:40:34.986Z,8.88
2022-12-31T23:43:36.588Z,8.65
2022-12-31T23:46:38.807Z,8.27
2022-12-31T23:49:40.576Z,8.40
2022-12-31T23:52:42.700Z,7.20
2022-12-31T23:55:44.531Z,7.95
2022-12-31T23:58:46.830Z,8.30
